Time;durP1;ratioP1;P1;durP2;ratioP2;P2;SDS_P1;SDS_P2;PMS_P1;PMS_P2;Temp;Humidity;BMP_temperature;BMP_pressure;BME280_temperature;BME280_humidity;BME280_pressure;Samples;Min_cycle;Max_cycle;Signal;HPM_P1;HPM_P2
2021/12/27 00:00:14;;;;;;;19.75;12.00;;;-1.40;99.90;;;;;;5054277;28;20159;-66
2021/12/27 00:02:41;;;;;;;22.25;11.20;;;-1.40;99.90;;;;;;5069288;28;20436;-65
2021/12/27 00:05:07;;;;;;;22.25;12.02;;;-1.40;99.90;;;;;;5035402;28;20053;-67
2021/12/27 00:07:32;;;;;;;21.17;10.98;;;-1.40;99.90;;;;;;5052579;28;20109;-67
2021/12/27 00:10:00;;;;;;;18.75;10.50;;;-1.40;99.90;;;;;;5053259;28;20163;-67
2021/12/27 00:12:25;;;;;;;20.58;11.45;;;-1.40;99.90;;;;;;5053811;28;20683;-66
2021/12/27 00:14:51;;;;;;;20.83;11.75;;;-1.40;99.90;;;;;;5053106;28;20116;-66
2021/12/27 00:17:17;;;;;;;24.13;12.30;;;-1.40;99.90;;;;;;5053638;28;20044;-66
2021/12/27 00:19:42;;;;;;;21.00;10.73;;;-1.30;99.90;;;;;;5052983;28;20056;-66
2021/12/27 00:22:08;;;;;;;21.52;11.20;;;-1.30;99.90;;;;;;5053743;28;20352;-66
2021/12/27 00:24:34;;;;;;;22.20;11.52;;;-1.30;99.90;;;;;;5052209;28;20049;-67
2021/12/27 00:26:59;;;;;;;27.58;11.38;;;-1.30;99.90;;;;;;5052070;28;20392;-67
2021/12/27 00:29:25;;;;;;;21.15;12.05;;;-1.30;99.90;;;;;;5052523;28;20041;-67
2021/12/27 00:31:51;;;;;;;21.92;11.73;;;-1.30;99.90;;;;;;5053687;28;20468;-66
2021/12/27 00:34:16;;;;;;;20.77;11.23;;;-1.30;99.90;;;;;;5032996;28;20099;-66
2021/12/27 00:36:42;;;;;;;22.40;12.18;;;-1.40;99.90;;;;;;5033517;28;20380;-66
2021/12/27 00:39:08;;;;;;;20.77;11.48;;;-1.30;99.90;;;;;;5033582;28;20037;-67
2021/12/27 00:41:34;;;;;;;21.15;11.63;;;-1.40;99.90;;;;;;5046972;28;20091;-66
2021/12/27 00:43:59;;;;;;;21.73;11.52;;;-1.40;99.90;;;;;;5052789;28;20115;-66
2021/12/27 00:46:25;;;;;;;21.20;11.02;;;-1.40;99.90;;;;;;5052595;28;20091;-66
2021/12/27 00:48:51;;;;;;;23.52;12.75;;;-1.10;99.90;;;;;;5052761;28;20048;-67
2021/12/27 00:51:16;;;;;;;18.25;9.90;;;-1.40;99.90;;;;;;5050948;28;20049;-66
2021/12/27 00:53:42;;;;;;;21.38;11.80;;;-1.40;99.90;;;;;;5050973;28;20057;-67
2021/12/27 00:56:08;;;;;;;20.45;11.65;;;-1.40;99.90;;;;;;5053167;28;20447;-67
2021/12/27 00:58:34;;;;;;;19.50;10.90;;;-0.20;99.90;;;;;;5052987;28;20075;-65
2021/12/27 01:01:00;;;;;;;22.20;11.40;;;-1.50;99.90;;;;;;5050677;28;20045;-65
2021/12/27 01:03:26;;;;;;;20.75;11.00;;;-1.60;99.90;;;;;;5052435;28;20379;-66
2021/12/27 01:05:52;;;;;;;20.65;12.25;;;-1.60;99.90;;;;;;5051262;28;20056;-66
2021/12/27 01:08:17;;;;;;;25.20;11.55;;;-1.60;99.90;;;;;;5051314;28;20051;-66
2021/12/27 01:13:41;;;;;;;21.92;10.60;;;-1.70;99.90;;;;;;5032684;28;20057;-66
2021/12/27 01:18:35;;;;;;;21.00;10.77;;;-1.80;99.90;;;;;;5052562;28;20064;-67
2021/12/27 01:21:01;;;;;;;20.50;11.13;;;-1.80;99.90;;;;;;5051686;28;20107;-64
2021/12/27 01:23:26;;;;;;;21.25;11.32;;;-1.80;99.90;;;;;;5052327;28;20491;-67
2021/12/27 01:25:52;;;;;;;19.45;10.93;;;-1.80;99.90;;;;;;5050644;28;20415;-67
2021/12/27 01:28:19;;;;;;;24.10;12.35;;;-1.80;99.90;;;;;;5031535;28;20112;-67
2021/12/27 01:30:48;;;;;;;22.83;11.30;;;-1.80;99.90;;;;;;5032369;28;20053;-66
2021/12/27 01:33:16;;;;;;;18.92;10.30;;;-1.90;99.90;;;;;;5032312;28;20038;-66
2021/12/27 01:35:42;;;;;;;22.75;12.55;;;-1.90;99.90;;;;;;5035361;28;20047;-66
2021/12/27 01:38:08;;;;;;;24.27;11.43;;;-1.90;99.90;;;;;;5052075;28;20045;-67
2021/12/27 01:40:33;;;;;;;19.88;11.55;;;-1.90;99.90;;;;;;5051976;28;20076;-67
2021/12/27 01:43:02;;;;;;;25.35;11.88;;;-1.90;99.90;;;;;;5049389;28;20087;-66
2021/12/27 01:45:28;;;;;;;21.77;11.30;;;-1.90;99.90;;;;;;5052104;28;20049;-66
2021/12/27 01:47:54;;;;;;;22.20;11.73;;;-1.90;99.90;;;;;;5052342;28;20041;-65
2021/12/27 01:50:20;;;;;;;20.90;10.85;;;-1.90;99.90;;;;;;5051081;28;20102;-65
2021/12/27 01:52:46;;;;;;;24.33;12.48;;;-1.90;99.90;;;;;;5051635;28;20052;-66
2021/12/27 01:55:12;;;;;;;21.58;12.05;;;-1.90;99.90;;;;;;5051736;28;20101;-66
2021/12/27 01:57:37;;;;;;;21.52;11.73;;;-1.90;99.90;;;;;;5051615;28;20045;-66
2021/12/27 02:00:05;;;;;;;21.10;11.93;;;-1.80;99.90;;;;;;5051590;28;20153;-66
2021/12/27 02:02:31;;;;;;;21.50;12.40;;;-1.80;99.90;;;;;;5051778;28;20049;-67
2021/12/27 02:04:57;;;;;;;22.65;12.10;;;-1.80;99.90;;;;;;5050800;28;20103;-68
2021/12/27 02:07:23;;;;;;;22.20;12.20;;;-1.80;99.90;;;;;;5051852;28;20048;-66
2021/12/27 02:10:01;;;;;;;21.40;12.85;;;-1.80;99.90;;;;;;5051786;28;20068;-66
2021/12/27 02:12:27;;;;;;;25.33;12.35;;;-1.80;99.90;;;;;;5044655;28;20045;-67
2021/12/27 02:14:53;;;;;;;22.80;13.13;;;-1.80;99.90;;;;;;5031488;28;20107;-66
2021/12/27 02:17:19;;;;;;;23.48;12.05;;;-1.80;99.90;;;;;;5036583;28;20131;-66
2021/12/27 02:19:52;;;;;;;24.08;13.07;;;-1.60;99.90;;;;;;5051364;28;20133;-68
2021/12/27 02:22:19;;;;;;;22.33;11.68;;;-1.80;99.90;;;;;;5049477;28;20049;-67
2021/12/27 02:24:44;;;;;;;21.90;13.15;;;-1.80;99.90;;;;;;5051022;28;20045;-66
2021/12/27 02:27:15;;;;;;;21.13;11.85;;;-1.70;99.90;;;;;;5051561;28;20052;-67
2021/12/27 02:29:41;;;;;;;24.92;12.35;;;-1.80;99.90;;;;;;5049321;28;20120;-67
2021/12/27 02:32:07;;;;;;;24.80;13.02;;;-1.80;99.90;;;;;;5049181;28;20127;-66
2021/12/27 02:34:33;;;;;;;21.75;12.85;;;-1.80;99.90;;;;;;5051510;28;20076;-67
2021/12/27 02:36:59;;;;;;;24.23;12.57;;;-1.70;99.90;;;;;;5051563;28;20044;-66
2021/12/27 02:39:25;;;;;;;23.73;12.18;;;-1.70;99.90;;;;;;5050582;28;20041;-67
2021/12/27 02:41:52;;;;;;;22.65;13.48;;;-1.70;99.90;;;;;;5051193;28;20049;-67
2021/12/27 02:44:18;;;;;;;28.85;13.95;;;-1.70;99.90;;;;;;5051229;28;20546;-67
2021/12/27 02:46:43;;;;;;;33.42;17.27;;;-1.70;99.90;;;;;;5042090;28;20137;-67
2021/12/27 02:49:10;;;;;;;26.05;13.32;;;-1.70;99.90;;;;;;5029958;28;20060;-65
2021/12/27 02:51:35;;;;;;;23.65;13.02;;;-1.70;99.90;;;;;;5039386;28;20455;-66
2021/12/27 02:54:01;;;;;;;25.55;14.85;;;-1.60;99.90;;;;;;5051052;28;20037;-66
2021/12/27 02:56:29;;;;;;;26.20;14.27;;;-1.60;99.90;;;;;;5049616;28;20085;-66
2021/12/27 02:58:56;;;;;;;22.80;12.82;;;-1.60;99.90;;;;;;5037918;28;20037;-66
2021/12/27 03:01:23;;;;;;;26.42;13.55;;;-1.60;99.90;;;;;;5043267;28;20514;-67
2021/12/27 03:03:50;;;;;;;23.00;13.25;;;-1.60;99.90;;;;;;5043570;28;20049;-66
2021/12/27 03:06:16;;;;;;;25.48;13.40;;;-1.60;99.90;;;;;;5048063;28;20084;-67
2021/12/27 03:08:44;;;;;;;23.95;13.63;;;-1.60;99.90;;;;;;5048823;28;20115;-67
2021/12/27 03:11:11;;;;;;;21.20;13.10;;;-1.60;99.90;;;;;;5050563;28;20186;-67
2021/12/27 03:13:39;;;;;;;24.35;13.95;;;-1.60;99.90;;;;;;5049454;28;20055;-66
2021/12/27 03:16:08;;;;;;;22.13;13.38;;;-1.50;99.90;;;;;;5052452;28;20428;-66
2021/12/27 03:18:36;;;;;;;24.75;13.65;;;-1.50;99.90;;;;;;5053443;28;20120;-66
2021/12/27 03:21:03;;;;;;;28.75;14.05;;;-1.40;99.90;;;;;;5053193;28;20095;-65
2021/12/27 03:23:29;;;;;;;27.27;14.80;;;-1.50;99.90;;;;;;5053304;28;20137;-66
2021/12/27 03:25:54;;;;;;;24.05;13.70;;;-1.50;99.90;;;;;;5054601;28;20037;-66
2021/12/27 03:28:21;;;;;;;29.45;15.38;;;-1.50;99.90;;;;;;5053841;28;20052;-65
2021/12/27 03:30:47;;;;;;;26.95;14.25;;;-1.40;99.90;;;;;;5052677;28;20078;-66
2021/12/27 03:33:13;;;;;;;24.30;12.75;;;-1.40;99.90;;;;;;5054311;28;20052;-66
2021/12/27 03:35:48;;;;;;;27.27;13.50;;;-1.40;99.90;;;;;;5048928;28;20056;-66
2021/12/27 03:38:14;;;;;;;27.45;13.73;;;-1.40;99.90;;;;;;5049980;28;20341;-66
2021/12/27 03:40:40;;;;;;;24.95;14.35;;;-1.40;99.90;;;;;;5032870;28;20054;-65
2021/12/27 03:43:06;;;;;;;24.50;13.40;;;-1.40;99.90;;;;;;5049331;28;20045;-66
2021/12/27 03:45:37;;;;;;;23.88;14.38;;;-1.40;99.90;;;;;;5034147;28;20495;-66
2021/12/27 03:48:05;;;;;;;28.27;13.57;;;-1.40;99.90;;;;;;5049437;28;20092;-66
2021/12/27 03:50:31;;;;;;;25.15;13.60;;;-1.40;99.90;;;;;;5037411;28;20049;-67
2021/12/27 03:52:57;;;;;;;25.35;14.07;;;-1.30;99.90;;;;;;5054468;28;20507;-67
2021/12/27 03:55:23;;;;;;;21.83;13.23;;;-1.30;99.90;;;;;;5054262;28;20087;-66
2021/12/27 03:57:54;;;;;;;27.60;13.90;;;-1.30;99.90;;;;;;5040379;28;20045;-66
2021/12/27 04:02:50;;;;;;;24.88;13.70;;;-1.30;99.90;;;;;;5052750;28;20447;-67
2021/12/27 04:05:17;;;;;;;25.15;13.60;;;-1.30;99.90;;;;;;5054132;28;20106;-67
2021/12/27 04:07:45;;;;;;;25.77;13.52;;;-1.30;99.90;;;;;;5051967;28;20049;-67
2021/12/27 04:10:11;;;;;;;24.55;14.77;;;-1.30;99.90;;;;;;5053834;28;20052;-66
2021/12/27 04:12:38;;;;;;;28.38;14.70;;;-1.30;99.90;;;;;;5053199;28;20073;-65
2021/12/27 04:15:06;;;;;;;27.00;14.63;;;-1.20;99.90;;;;;;5053604;28;20037;-67
2021/12/27 04:17:31;;;;;;;28.02;14.85;;;-1.20;99.90;;;;;;5053784;28;20363;-66
2021/12/27 04:19:57;;;;;;;30.65;15.55;;;-1.20;99.90;;;;;;5046078;28;20074;-66
2021/12/27 04:22:23;;;;;;;27.58;17.02;;;-1.20;99.90;;;;;;5033805;28;20216;-66
2021/12/27 04:24:49;;;;;;;29.42;14.32;;;-1.10;99.90;;;;;;5033667;28;20049;-66
2021/12/27 04:27:14;;;;;;;28.13;14.43;;;-1.10;99.90;;;;;;5045366;28;20041;-66
2021/12/27 04:29:40;;;;;;;26.98;14.85;;;-1.10;99.90;;;;;;5052401;28;20045;-66
2021/12/27 04:32:06;;;;;;;32.70;15.93;;;-1.10;99.90;;;;;;5053131;28;20039;-66
2021/12/27 04:34:32;;;;;;;26.77;15.00;;;-1.10;99.90;;;;;;5052899;28;20398;-67
2021/12/27 04:36:58;;;;;;;27.75;15.85;;;-1.10;99.90;;;;;;5032825;28;20041;-66
2021/12/27 04:39:23;;;;;;;29.13;15.07;;;-1.00;99.90;;;;;;5033308;28;20045;-66
2021/12/27 04:41:49;;;;;;;30.50;16.40;;;-1.00;99.90;;;;;;5032993;28;20406;-66
2021/12/27 04:44:15;;;;;;;28.25;15.02;;;-1.00;99.90;;;;;;5015694;28;20045;-66
2021/12/27 04:46:41;;;;;;;28.65;15.80;;;-1.00;99.90;;;;;;5032959;28;20534;-67
2021/12/27 04:49:07;;;;;;;31.35;16.23;;;-0.90;99.90;;;;;;5033024;28;20129;-66
2021/12/27 04:51:32;;;;;;;32.13;15.82;;;-0.90;99.90;;;;;;5045071;28;20033;-66
2021/12/27 04:53:58;;;;;;;28.05;16.20;;;-0.90;99.90;;;;;;5053095;28;20128;-66
2021/12/27 04:56:24;;;;;;;29.90;15.80;;;-0.90;99.90;;;;;;5053076;28;20049;-66
2021/12/27 04:58:50;;;;;;;28.92;15.15;;;-0.90;99.90;;;;;;5052556;28;20167;-66
2021/12/27 05:01:18;;;;;;;28.75;16.30;;;-0.90;99.90;;;;;;5051362;28;20049;-66
2021/12/27 05:03:44;;;;;;;29.95;15.55;;;-0.90;99.90;;;;;;5051941;28;20531;-67
2021/12/27 05:06:13;;;;;;;27.30;15.80;;;-0.80;99.90;;;;;;5052071;28;20212;-66
2021/12/27 05:08:39;;;;;;;;;;;-0.90;99.90;;;;;;5032862;28;20432;-66
2021/12/27 05:11:05;;;;;;;26.02;15.60;;;-0.80;99.90;;;;;;5032605;28;19928;-67
2021/12/27 05:13:31;;;;;;;32.50;16.45;;;-0.80;99.90;;;;;;5032445;28;20053;-67
2021/12/27 05:15:59;;;;;;;27.58;15.52;;;-0.80;99.90;;;;;;5051260;28;20053;-65
2021/12/27 05:18:25;;;;;;;27.75;16.23;;;-0.80;99.90;;;;;;5052385;28;20091;-66
2021/12/27 05:20:50;;;;;;;27.55;15.73;;;-0.80;99.90;;;;;;5051278;28;20049;-67
2021/12/27 05:23:16;;;;;;;29.25;16.35;;;-0.70;99.90;;;;;;5052407;28;20060;-66
2021/12/27 05:25:42;;;;;;;28.52;16.25;;;-0.70;99.90;;;;;;5052610;28;20036;-66
2021/12/27 05:28:09;;;;;;;26.67;15.15;;;-0.70;99.90;;;;;;5050219;28;20528;-66
2021/12/27 05:30:35;;;;;;;28.50;16.40;;;-0.70;99.90;;;;;;5052105;28;20037;-66
2021/12/27 05:33:02;;;;;;;28.73;16.23;;;-0.70;99.90;;;;;;5052359;28;20049;-66
2021/12/27 05:35:27;;;;;;;30.77;16.85;;;-0.60;99.90;;;;;;5052491;28;20095;-67
2021/12/27 05:37:54;;;;;;;31.00;16.83;;;-0.60;99.90;;;;;;5051144;28;20053;-67
2021/12/27 05:40:22;;;;;;;30.30;17.00;;;-0.60;99.90;;;;;;5052012;28;20045;-67
2021/12/27 05:42:50;;;;;;;30.77;16.67;;;-0.60;99.90;;;;;;5051798;28;20487;-65
2021/12/27 05:45:16;;;;;;;31.75;17.55;;;-0.60;99.90;;;;;;5051665;28;20041;-66
2021/12/27 05:47:43;;;;;;;31.40;17.58;;;-0.60;99.90;;;;;;5052147;28;21040;-65
2021/12/27 05:50:10;;;;;;;30.17;16.90;;;-0.60;99.90;;;;;;5052050;28;20058;-66
2021/12/27 05:52:36;;;;;;;31.25;17.30;;;-0.60;99.90;;;;;;5051605;28;20037;-66
2021/12/27 05:55:04;;;;;;;32.53;18.35;;;-0.60;99.90;;;;;;5051808;28;20045;-66
2021/12/27 05:57:29;;;;;;;34.60;18.65;;;-0.60;99.90;;;;;;5051949;28;20094;-65
2021/12/27 05:59:55;;;;;;;36.30;19.05;;;-0.60;99.90;;;;;;5051848;28;20462;-66
2021/12/27 06:02:21;;;;;;;40.97;20.13;;;-0.60;99.90;;;;;;5051263;28;20041;-66
2021/12/27 06:04:46;;;;;;;35.78;19.90;;;-0.60;99.90;;;;;;5051745;28;20037;-65
2021/12/27 06:07:12;;;;;;;35.00;19.88;;;-0.60;99.90;;;;;;5050390;28;20040;-66
2021/12/27 06:09:38;;;;;;;39.03;20.05;;;-0.60;99.90;;;;;;5051435;28;20059;-67
2021/12/27 06:12:04;;;;;;;43.00;21.27;;;-0.60;99.90;;;;;;5033781;28;20178;-66
2021/12/27 06:14:30;;;;;;;43.47;19.65;;;-0.60;99.90;;;;;;5051967;28;20045;-66
2021/12/27 06:16:55;;;;;;;44.45;22.50;;;-0.60;99.90;;;;;;5067246;28;20132;-66
2021/12/27 06:19:21;;;;;;;38.13;20.45;;;-0.60;99.90;;;;;;5031878;28;20081;-66
2021/12/27 06:21:47;;;;;;;43.63;21.98;;;-0.60;99.90;;;;;;5031837;28;20120;-66
2021/12/27 06:24:13;;;;;;;43.00;21.85;;;-0.60;99.90;;;;;;5047865;28;20052;-66
2021/12/27 06:26:39;;;;;;;47.88;23.50;;;-0.60;99.90;;;;;;5051764;28;20037;-66
2021/12/27 06:29:04;;;;;;;45.60;21.90;;;-0.60;99.90;;;;;;5049344;28;20067;-66
2021/12/27 06:31:30;;;;;;;48.80;22.35;;;-0.60;99.90;;;;;;5051791;28;20353;-66
2021/12/27 06:33:55;;;;;;;51.65;23.05;;;-0.60;99.90;;;;;;5050150;28;20546;-66
2021/12/27 06:36:21;;;;;;;45.65;23.75;;;-0.60;99.90;;;;;;5050592;28;20066;-66
2021/12/27 06:38:47;;;;;;;51.15;22.75;;;-0.60;99.90;;;;;;5033296;28;20128;-66
2021/12/27 06:41:12;;;;;;;49.80;24.08;;;-0.60;99.90;;;;;;5051560;28;20056;-67
2021/12/27 06:43:38;;;;;;;43.47;22.95;;;-0.50;99.90;;;;;;5038262;28;20049;-66
2021/12/27 06:46:04;;;;;;;47.03;21.85;;;-0.50;99.90;;;;;;5031459;28;20493;-66
2021/12/27 06:48:29;;;;;;;52.40;23.25;;;-0.60;99.90;;;;;;5044238;28;20033;-66
2021/12/27 06:50:55;;;;;;;49.85;23.40;;;-0.50;99.90;;;;;;5052428;28;20044;-67
2021/12/27 06:53:21;;;;;;;53.35;23.88;;;-0.50;99.90;;;;;;5054869;28;20041;-66
2021/12/27 06:55:48;;;;;;;52.65;23.73;;;-0.50;99.90;;;;;;5053716;28;20045;-67
2021/12/27 06:58:14;;;;;;;53.05;24.60;;;-0.50;99.90;;;;;;5046693;28;20069;-66
2021/12/27 07:00:40;;;;;;;48.33;25.25;;;-0.50;99.90;;;;;;5041504;28;20372;-66
2021/12/27 07:03:06;;;;;;;50.28;23.40;;;-0.50;99.90;;;;;;5054861;28;20130;-66
2021/12/27 07:05:31;;;;;;;51.58;23.88;;;-0.50;99.90;;;;;;5054876;28;20384;-66
2021/12/27 07:07:57;;;;;;;57.78;26.45;;;-0.50;99.90;;;;;;5052631;28;20402;-66
2021/12/27 07:10:23;;;;;;;45.35;23.17;;;-0.50;99.90;;;;;;5053969;28;20052;-67
2021/12/27 07:12:49;;;;;;;60.80;24.05;;;-0.50;99.90;;;;;;5052722;28;20116;-66
2021/12/27 07:15:15;;;;;;;53.08;24.13;;;-0.50;99.90;;;;;;5055263;28;20135;-66
2021/12/27 07:17:41;;;;;;;60.47;24.40;;;-0.50;99.90;;;;;;5054741;28;20103;-66
2021/12/27 07:20:07;;;;;;;54.45;22.67;;;-0.40;99.90;;;;;;5054992;28;20092;-67
2021/12/27 07:22:34;;;;;;;55.95;23.92;;;-0.40;99.90;;;;;;5053343;28;20467;-67
2021/12/27 07:24:59;;;;;;;56.67;22.95;;;-0.40;99.90;;;;;;5052760;28;20382;-67
2021/12/27 07:27:25;;;;;;;54.38;22.98;;;-0.40;99.90;;;;;;5054791;28;20045;-67
2021/12/27 07:29:51;;;;;;;52.40;24.13;;;-0.40;99.90;;;;;;5054398;28;20450;-67
2021/12/27 07:32:16;;;;;;;62.10;25.38;;;-0.40;99.90;;;;;;5069929;28;20405;-66
2021/12/27 07:34:43;;;;;;;50.88;24.45;;;-0.40;99.90;;;;;;5053322;28;20041;-67
2021/12/27 07:37:08;;;;;;;54.15;24.67;;;-0.30;99.90;;;;;;5053312;28;20049;-67
2021/12/27 07:39:34;;;;;;;51.13;25.15;;;-0.40;99.90;;;;;;5052675;28;20044;-67
2021/12/27 07:42:00;;;;;;;51.92;23.92;;;-0.40;99.90;;;;;;5053130;28;20051;-66
2021/12/27 07:44:26;;;;;;;51.28;23.92;;;-0.40;99.90;;;;;;5054310;28;20033;-67
2021/12/27 07:46:51;;;;;;;55.00;24.67;;;-0.40;99.90;;;;;;5037226;28;20048;-68
2021/12/27 07:49:18;;;;;;;50.45;24.42;;;-0.40;99.90;;;;;;5034510;28;20042;-68
2021/12/27 07:51:45;;;;;;;60.25;26.13;;;-0.40;99.90;;;;;;5066546;28;20382;-68
2021/12/27 07:54:11;;;;;;;60.38;25.08;;;-0.40;99.90;;;;;;5054198;28;20491;-68
2021/12/27 07:56:37;;;;;;;60.92;24.63;;;-0.40;99.90;;;;;;5054039;28;20041;-67
2021/12/27 07:59:04;;;;;;;60.53;25.77;;;-0.40;99.90;;;;;;5036927;28;20049;-68
2021/12/27 08:01:38;;;;;;;65.15;26.10;;;-0.40;99.90;;;;;;5045368;28;20106;-66
2021/12/27 08:04:05;;;;;;;62.15;27.30;;;-0.30;99.90;;;;;;5054359;28;20045;-67
2021/12/27 08:06:32;;;;;;;54.10;25.55;;;-0.40;99.90;;;;;;5052672;28;20056;-67
2021/12/27 08:08:58;;;;;;;65.03;26.25;;;-0.30;99.90;;;;;;5053659;28;20045;-67
2021/12/27 08:11:25;;;;;;;59.95;27.35;;;-0.30;99.90;;;;;;5053507;28;20428;-67
2021/12/27 08:13:51;;;;;;;62.72;27.00;;;-0.30;99.90;;;;;;5052593;28;20131;-67
2021/12/27 08:16:17;;;;;;;65.13;26.25;;;-0.30;99.90;;;;;;5053324;28;20128;-68
2021/12/27 08:18:46;;;;;;;62.53;27.17;;;-0.30;99.90;;;;;;5053514;28;20053;-67
2021/12/27 08:21:12;;;;;;;64.20;26.58;;;-0.30;99.90;;;;;;5053498;28;20114;-67
2021/12/27 08:23:38;;;;;;;65.03;27.13;;;-0.30;99.90;;;;;;5053864;28;20391;-67
2021/12/27 08:26:04;;;;;;;56.83;25.73;;;-0.30;99.90;;;;;;5035850;28;20049;-66
2021/12/27 08:28:30;;;;;;;53.83;25.05;;;-0.20;99.90;;;;;;5052613;28;20045;-66
2021/12/27 08:30:56;;;;;;;57.30;26.02;;;-0.20;99.90;;;;;;5053451;28;20115;-67
2021/12/27 08:33:21;;;;;;;63.30;28.42;;;-0.20;99.90;;;;;;5051981;28;20045;-67
2021/12/27 08:35:48;;;;;;;62.38;26.63;;;-0.20;99.90;;;;;;5052477;28;20049;-67
2021/12/27 08:38:14;;;;;;;61.53;25.20;;;-0.20;99.90;;;;;;5053816;28;20128;-67
2021/12/27 08:40:39;;;;;;;56.53;26.67;;;-0.20;99.90;;;;;;5053017;28;20473;-67
2021/12/27 08:43:05;;;;;;;58.42;25.95;;;-0.20;99.90;;;;;;5051829;28;20040;-67
2021/12/27 08:45:32;;;;;;;67.07;26.95;;;-0.10;99.90;;;;;;5053589;28;20033;-67
2021/12/27 08:47:58;;;;;;;54.72;26.90;;;-0.10;99.90;;;;;;5051662;28;20044;-67
2021/12/27 08:50:23;;;;;;;61.03;27.38;;;-0.10;99.90;;;;;;5053443;28;20041;-67
2021/12/27 08:52:50;;;;;;;62.88;25.90;;;-0.10;99.90;;;;;;5052575;28;20037;-66
2021/12/27 08:55:16;;;;;;;57.30;26.42;;;-0.10;99.90;;;;;;5053015;28;20171;-68
2021/12/27 08:57:43;;;;;;;68.60;24.70;;;-0.10;99.90;;;;;;5053249;28;20123;-68
2021/12/27 09:00:12;;;;;;;57.63;26.00;;;-0.10;99.90;;;;;;5051447;28;20132;-66
2021/12/27 09:02:37;;;;;;;61.53;26.13;;;0.00;99.90;;;;;;5051726;28;20041;-66
2021/12/27 09:05:04;;;;;;;60.53;25.27;;;0.00;99.90;;;;;;5053040;28;20048;-67
2021/12/27 09:07:30;;;;;;;58.03;26.33;;;0.00;99.90;;;;;;5052148;28;20110;-66
2021/12/27 09:09:55;;;;;;;66.63;25.73;;;0.00;99.90;;;;;;5052999;28;20045;-66
2021/12/27 09:12:21;;;;;;;55.85;23.92;;;0.00;99.90;;;;;;5051319;28;20049;-67
2021/12/27 09:14:47;;;;;;;55.65;25.13;;;0.10;99.90;;;;;;5051463;28;20080;-67
2021/12/27 09:17:12;;;;;;;56.83;26.10;;;0.10;99.90;;;;;;5052739;28;20463;-66
2021/12/27 09:19:38;;;;;;;59.25;25.83;;;0.10;99.90;;;;;;5052729;28;20452;-67
2021/12/27 09:22:04;;;;;;;59.58;24.90;;;0.10;99.90;;;;;;5052168;28;20716;-67
2021/12/27 09:24:31;;;;;;;60.75;25.25;;;0.10;99.90;;;;;;5052495;28;20056;-67
2021/12/27 09:26:57;;;;;;;64.00;24.95;;;0.20;99.90;;;;;;5052439;28;20048;-67
2021/12/27 09:29:24;;;;;;;66.95;26.30;;;0.10;99.90;;;;;;5051169;28;20128;-67
2021/12/27 09:31:52;;;;;;;57.15;24.13;;;0.20;99.90;;;;;;5052473;28;20044;-66
2021/12/27 09:34:19;;;;;;;66.30;26.48;;;1.10;99.90;;;;;;5051096;28;20063;-67
2021/12/27 09:36:45;;;;;;;57.15;23.05;;;0.20;99.90;;;;;;5052434;28;20056;-68
2021/12/27 09:39:11;;;;;;;62.05;25.67;;;0.20;99.90;;;;;;5052185;28;20088;-67
2021/12/27 09:41:37;;;;;;;54.17;23.52;;;0.20;99.90;;;;;;5050007;28;20076;-67
2021/12/27 09:44:04;;;;;;;61.60;25.60;;;0.20;99.90;;;;;;5051998;28;20349;-67
2021/12/27 09:46:31;;;;;;;55.42;24.05;;;0.20;99.90;;;;;;5052041;28;20135;-67
2021/12/27 09:48:58;;;;;;;57.15;25.48;;;0.20;99.90;;;;;;5051662;28;20375;-67
2021/12/27 09:51:26;;;;;;;73.32;27.88;;;0.20;99.90;;;;;;5052107;28;20071;-67
2021/12/27 09:53:52;;;;;;;64.53;26.60;;;0.20;99.90;;;;;;5050573;28;20074;-66
2021/12/27 09:56:24;;;;;;;61.58;26.75;;;0.30;99.90;;;;;;5051763;28;20049;-67
2021/12/27 09:58:50;;;;;;;74.43;26.08;;;0.30;99.90;;;;;;5052086;28;20051;-67
2021/12/27 10:01:16;;;;;;;67.40;27.10;;;0.30;99.90;;;;;;5052200;28;20040;-67
2021/12/27 10:03:52;;;;;;;65.50;26.15;;;0.30;99.90;;;;;;5050026;28;20439;-67
2021/12/27 10:06:20;;;;;;;73.55;27.50;;;0.30;99.90;;;;;;5034138;28;20060;-67
2021/12/27 10:08:50;;;;;;;70.53;28.15;;;0.30;99.90;;;;;;5052046;28;20112;-67
2021/12/27 10:11:21;;;;;;;72.85;28.42;;;0.30;99.90;;;;;;5051502;28;20056;-68
2021/12/27 10:13:57;;;;;;;85.00;28.92;;;0.50;99.90;;;;;;5052042;28;20124;-67
2021/12/27 10:16:23;;;;;;;82.55;29.85;;;0.30;99.90;;;;;;5051899;28;20102;-67
2021/12/27 10:18:54;;;;;;;88.38;31.50;;;0.30;99.90;;;;;;5050727;28;20554;-67
2021/12/27 10:21:19;;;;;;;84.68;29.25;;;0.30;99.90;;;;;;5051736;28;20339;-67
2021/12/27 10:23:45;;;;;;;81.22;29.85;;;0.30;99.90;;;;;;5050052;28;20041;-67
2021/12/27 10:26:17;;;;;;;86.20;30.45;;;0.30;99.90;;;;;;5057400;28;20122;-67
2021/12/27 10:28:42;;;;;;;89.38;32.33;;;0.30;99.90;;;;;;5058686;28;20041;-67
2021/12/27 10:31:08;;;;;;;84.97;32.50;;;0.40;99.90;;;;;;5058466;28;20052;-68
2021/12/27 10:33:33;;;;;;;82.10;31.52;;;0.40;99.90;;;;;;5057404;28;20045;-68
2021/12/27 10:35:59;;;;;;;106.00;33.83;;;0.40;99.90;;;;;;5058571;28;20186;-68
2021/12/27 10:38:26;;;;;;;97.70;32.60;;;0.40;99.90;;;;;;5058305;28;20475;-68
2021/12/27 10:41:09;;;;;;;99.13;32.67;;;0.40;99.90;;;;;;5058215;28;20464;-68
2021/12/27 10:43:45;;;;;;;94.43;32.25;;;0.40;99.90;;;;;;5057166;28;20543;-68
2021/12/27 10:46:17;;;;;;;94.72;33.17;;;0.40;99.90;;;;;;5058106;28;20053;-68
2021/12/27 10:48:55;;;;;;;101.82;32.72;;;0.40;99.90;;;;;;5058136;28;20172;-68
2021/12/27 10:51:21;;;;;;;101.80;33.65;;;0.50;99.90;;;;;;5057454;28;20045;-68
2021/12/27 10:53:51;;;;;;;108.05;33.97;;;0.50;99.90;;;;;;5058080;28;20124;-68
2021/12/27 10:56:19;;;;;;;98.72;32.65;;;0.50;99.90;;;;;;5058390;28;20602;-68
2021/12/27 10:58:47;;;;;;;104.47;33.60;;;0.50;99.90;;;;;;5057936;28;20293;-67
2021/12/27 11:01:18;;;;;;;105.35;33.25;;;0.60;99.90;;;;;;5057976;28;20111;-67
2021/12/27 11:03:44;;;;;;;105.88;35.47;;;0.60;99.90;;;;;;5056743;28;20089;-67
2021/12/27 11:06:12;;;;;;;99.05;34.30;;;0.60;99.90;;;;;;5056574;28;20382;-67
2021/12/27 11:08:41;;;;;;;99.45;34.53;;;0.70;99.90;;;;;;5057952;28;20487;-67
2021/12/27 11:11:08;;;;;;;122.75;35.97;;;0.70;99.90;;;;;;5056814;28;20057;-67
2021/12/27 11:13:34;;;;;;;118.75;35.60;;;0.70;99.90;;;;;;5055668;28;20098;-67
2021/12/27 11:16:00;;;;;;;136.23;37.17;;;1.70;99.90;;;;;;5053424;28;20399;-66
2021/12/27 11:18:26;;;;;;;132.27;37.35;;;0.80;99.90;;;;;;5038358;28;20045;-67
2021/12/27 11:21:10;;;;;;;122.05;36.13;;;0.80;99.90;;;;;;5053197;28;20490;-67
2021/12/27 11:23:37;;;;;;;119.22;35.10;;;0.90;99.90;;;;;;5055820;28;20040;-68
2021/12/27 11:26:07;;;;;;;125.35;36.53;;;0.90;99.90;;;;;;5057746;28;20044;-67
2021/12/27 11:28:35;;;;;;;122.10;35.58;;;0.90;99.90;;;;;;5056017;28;20482;-67
2021/12/27 11:31:16;;;;;;;113.55;32.92;;;1.00;99.90;;;;;;5057794;28;20049;-67
2021/12/27 11:33:59;;;;;;;146.45;38.65;;;1.10;99.90;;;;;;5057245;28;20044;-67
2021/12/27 11:36:36;;;;;;;137.05;36.50;;;1.10;99.90;;;;;;5054357;28;20565;-67
2021/12/27 11:39:30;;;;;;;133.23;33.50;;;1.10;99.90;;;;;;5054599;28;20387;-67
2021/12/27 11:42:06;;;;;;;144.77;38.55;;;1.10;99.90;;;;;;5050782;28;20068;-66
2021/12/27 11:44:58;;;;;;;172.18;38.17;;;1.10;99.90;;;;;;5053056;28;20053;-67
2021/12/27 11:47:25;;;;;;;151.50;35.85;;;1.10;99.90;;;;;;5054498;28;20045;-67
2021/12/27 11:49:50;;;;;;;136.23;36.80;;;1.20;99.90;;;;;;5054208;28;20040;-67
2021/12/27 11:52:17;;;;;;;147.32;38.58;;;1.10;99.90;;;;;;5052893;28;20556;-66
2021/12/27 11:54:58;;;;;;;146.43;37.33;;;1.10;99.90;;;;;;5054394;28;20140;-67
2021/12/27 11:57:42;;;;;;;134.40;34.63;;;1.20;99.90;;;;;;5052817;28;20544;-67
2021/12/27 12:00:17;;;;;;;158.13;37.58;;;1.20;99.90;;;;;;5054001;28;20095;-66
2021/12/27 12:02:51;;;;;;;134.48;35.22;;;1.20;99.90;;;;;;5052621;28;20150;-66
2021/12/27 12:05:35;;;;;;;129.35;36.10;;;1.20;99.90;;;;;;5054312;28;20037;-67
2021/12/27 12:08:01;;;;;;;153.95;35.13;;;1.20;99.90;;;;;;5052269;28;20107;-67
2021/12/27 12:10:27;;;;;;;150.05;34.72;;;1.20;99.90;;;;;;5054284;28;20451;-67
2021/12/27 12:13:15;;;;;;;151.27;35.28;;;1.20;99.90;;;;;;5053671;28;20079;-67
2021/12/27 12:15:58;;;;;;;169.67;38.83;;;1.10;99.90;;;;;;5052500;28;20045;-67
2021/12/27 12:18:23;;;;;;;153.30;36.67;;;1.10;99.90;;;;;;5054077;28;20056;-68
2021/12/27 12:20:49;;;;;;;169.73;39.40;;;1.10;99.90;;;;;;5068690;28;20053;-68
2021/12/27 12:23:15;;;;;;;138.85;38.90;;;1.20;99.90;;;;;;5053597;28;20045;-68
2021/12/27 12:25:41;;;;;;;152.40;35.55;;;1.20;99.90;;;;;;5053710;28;20048;-68
2021/12/27 12:28:13;;;;;;;163.82;38.65;;;1.20;99.90;;;;;;5052343;28;20049;-67
2021/12/27 12:30:49;;;;;;;147.27;37.47;;;1.20;99.90;;;;;;5052193;28;20336;-67
2021/12/27 12:33:15;;;;;;;143.63;39.33;;;1.20;99.90;;;;;;5053439;28;20055;-67
2021/12/27 12:35:45;;;;;;;143.32;37.45;;;1.30;99.90;;;;;;5068726;28;20041;-66